createdAt,value
2023-01-30T00:04:12.581Z,28.17
2023-01-30T00:14:15.870Z,28.23
2023-01-30T00:24:19.108Z,26.33
2023-01-30T00:34:21.264Z,24.73
2023-01-30T00:44:41.933Z,24.67
2023-01-30T00:54:44.234Z,29.83
2023-01-30T01:04:46.486Z,28.93
2023-01-30T01:14:48.800Z,27.73
2023-01-30T01:24:51.205Z,28.70
2023-01-30T01:34:53.500Z,28.73
2023-01-30T01:45:02.469Z,30.50
2023-01-30T01:55:07.515Z,27.00
2023-01-30T02:05:11.435Z,28.07
2023-01-30T02:15:14.095Z,24.80
2023-01-30T02:26:04.405Z,27.80
2023-01-30T02:36:30.245Z,31.10
2023-01-30T02:46:36.227Z,27.10
2023-01-30T02:56:44.853Z,30.43
2023-01-30T03:07:45.116Z,28.80
2023-01-30T03:17:47.841Z,25.90
2023-01-30T03:27:54.039Z,29.93
2023-01-30T03:37:58.456Z,28.83
2023-01-30T03:48:00.754Z,28.43
2023-01-30T03:58:03.019Z,29.27
2023-01-30T04:08:08.101Z,30.67
2023-01-30T04:18:10.896Z,30.30
2023-01-30T04:28:24.036Z,29.33
2023-01-30T04:38:29.696Z,26.47
2023-01-30T04:48:32.461Z,26.40
2023-01-30T04:58:36.962Z,22.97
2023-01-30T05:08:39.250Z,22.73
2023-01-30T05:18:42.005Z,22.60
2023-01-30T05:28:44.131Z,18.47
2023-01-30T05:38:46.530Z,17.83
2023-01-30T05:48:48.730Z,19.50
2023-01-30T05:58:52.401Z,18.67
2023-01-30T06:08:55.642Z,17.87
2023-01-30T06:18:57.918Z,21.80
2023-01-30T06:28:59.989Z,27.20
2023-01-30T06:39:02.095Z,25.33
2023-01-30T06:49:04.406Z,28.93
2023-01-30T06:59:06.720Z,30.77
2023-01-30T07:09:08.812Z,28.30
2023-01-30T07:19:11.200Z,25.57
2023-01-30T07:29:13.443Z,26.67
2023-01-30T07:39:15.569Z,26.03
2023-01-30T07:49:17.827Z,23.20
2023-01-30T07:59:20.114Z,16.87
2023-01-30T08:09:22.167Z,13.07
2023-01-30T08:19:24.434Z,14.20
2023-01-30T08:29:26.518Z,11.83
2023-01-30T08:39:28.639Z,11.00
2023-01-30T08:49:30.954Z,13.93
2023-01-30T08:59:33.080Z,11.00
2023-01-30T09:09:35.551Z,12.93
2023-01-30T09:19:37.734Z,7.27
2023-01-30T09:29:39.990Z,11.40
2023-01-30T09:39:42.115Z,7.83
2023-01-30T09:50:21.275Z,14.30
2023-01-30T10:00:43.622Z,8.67
2023-01-30T10:11:08.160Z,9.67
2023-01-30T10:21:20.257Z,10.40
2023-01-30T10:31:24.916Z,15.70
2023-01-30T10:41:35.243Z,11.73
2023-01-30T10:51:40.019Z,7.37
2023-01-30T11:01:51.937Z,11.10
2023-01-30T11:11:55.568Z,12.27
2023-01-30T11:22:02.729Z,6.37
2023-01-30T11:32:12.222Z,7.73
2023-01-30T11:42:14.645Z,10.27
2023-01-30T11:52:18.225Z,11.93
2023-01-30T12:02:24.439Z,10.97
2023-01-30T12:12:44.288Z,11.27
2023-01-30T12:23:12.017Z,11.50
2023-01-30T12:43:40.452Z,10.93
2023-01-30T12:53:57.829Z,12.60
2023-01-30T13:04:18.642Z,8.33
2023-01-30T13:14:37.332Z,17.73
2023-01-30T13:24:55.946Z,10.97
2023-01-30T13:34:59.552Z,13.27
2023-01-30T13:45:02.132Z,9.60
2023-01-30T13:55:15.372Z,10.47
2023-01-30T14:05:52.756Z,14.10
2023-01-30T14:15:57.508Z,11.77
2023-01-30T14:26:00.156Z,14.57
2023-01-30T14:36:02.199Z,9.33
2023-01-30T14:46:20.121Z,10.80
2023-01-30T14:56:47.802Z,8.83
2023-01-30T15:06:49.983Z,11.17
2023-01-30T15:16:59.361Z,13.97
2023-01-30T15:28:00.420Z,9.63
2023-01-30T15:38:02.550Z,13.43
2023-01-30T15:48:42.465Z,15.23
2023-01-30T15:58:44.943Z,11.50
2023-01-30T16:08:56.342Z,11.10
2023-01-30T16:19:05.180Z,17.93
2023-01-30T16:29:11.367Z,19.33
2023-01-30T16:39:34.949Z,12.27
2023-01-30T16:49:37.078Z,8.53
2023-01-30T16:59:40.451Z,10.77
2023-01-30T17:09:45.913Z,17.87
2023-01-30T17:19:48.854Z,10.87
2023-01-30T17:29:51.051Z,12.03
2023-01-30T17:39:53.368Z,12.93
2023-01-30T17:49:55.725Z,18.47
2023-01-30T17:59:57.997Z,17.20
2023-01-30T18:10:00.104Z,15.63
2023-01-30T18:20:03.646Z,11.30
2023-01-30T18:30:06.341Z,10.77
2023-01-30T18:40:09.469Z,13.80
2023-01-30T18:50:11.800Z,13.27
2023-01-30T19:00:16.464Z,13.90
2023-01-30T19:10:20.471Z,11.43
2023-01-30T19:20:24.119Z,17.40
2023-01-30T19:30:27.072Z,12.07
2023-01-30T19:40:29.317Z,14.43
2023-01-30T19:50:32.866Z,16.47
2023-01-30T20:00:35.073Z,16.43
2023-01-30T20:10:37.445Z,13.23
2023-01-30T20:20:39.597Z,17.43
2023-01-30T20:30:42.007Z,11.63
2023-01-30T20:40:44.134Z,17.10
2023-01-30T20:50:46.572Z,13.03
2023-01-30T21:00:48.693Z,17.67
2023-01-30T21:10:50.818Z,13.07
2023-01-30T21:20:53.043Z,19.03
2023-01-30T21:30:55.456Z,13.43
2023-01-30T21:41:16.390Z,14.83
2023-01-30T21:51:18.671Z,11.20
2023-01-30T22:01:21.079Z,11.23
2023-01-30T22:11:23.596Z,15.67
2023-01-30T22:21:28.085Z,13.50
2023-01-30T22:31:36.327Z,12.03
2023-01-30T22:41:38.695Z,12.03
2023-01-30T22:51:41.319Z,14.40
2023-01-30T23:01:46.055Z,14.90
2023-01-30T23:12:10.030Z,12.83
2023-01-30T23:22:12.156Z,15.47
2023-01-30T23:32:15.027Z,13.40
2023-01-30T23:42:17.198Z,12.43
2023-01-30T23:52:19.359Z,10.70
